createdAt,value
2022-09-07T00:01:05.655Z,76.27
2022-09-07T00:06:10.020Z,76.04
2022-09-07T00:11:13.020Z,76.32
2022-09-07T00:16:17.689Z,76.00
2022-09-07T00:21:19.232Z,75.96
2022-09-07T00:26:23.358Z,76.32
2022-09-07T00:31:25.569Z,76.17
2022-09-07T00:36:27.417Z,77.02
2022-09-07T00:41:29.206Z,77.67
2022-09-07T00:46:34.457Z,77.76
2022-09-07T00:51:43.818Z,77.83
2022-09-07T00:56:48.150Z,77.60
2022-09-07T01:01:50.158Z,77.81
2022-09-07T01:06:55.112Z,78.95
2022-09-07T01:12:00.088Z,78.79
2022-09-07T01:17:38.622Z,78.49
2022-09-07T01:23:17.309Z,79.15
2022-09-07T01:28:28.555Z,78.56
2022-09-07T01:33:42.110Z,79.21
2022-09-07T01:38:54.880Z,79.86
2022-09-07T01:44:11.914Z,80.40
2022-09-07T01:49:33.635Z,79.96
2022-09-07T01:54:41.902Z,80.33
2022-09-07T02:00:09.644Z,79.38
2022-09-07T02:05:18.484Z,80.14
2022-09-07T02:10:32.621Z,80.16
2022-09-07T02:15:37.119Z,80.34
2022-09-07T02:20:44.928Z,80.58
2022-09-07T02:25:55.929Z,80.03
2022-09-07T02:30:57.721Z,80.31
2022-09-07T02:36:01.468Z,80.27
2022-09-07T02:41:04.286Z,80.93
2022-09-07T02:46:27.176Z,80.79
2022-09-07T02:51:35.944Z,81.62
2022-09-07T02:56:54.069Z,81.71
2022-09-07T03:02:07.332Z,82.26
2022-09-07T03:07:14.233Z,82.60
2022-09-07T03:12:16.593Z,82.71
2022-09-07T03:17:18.515Z,83.56
2022-09-07T03:22:20.057Z,84.04
2022-09-07T03:27:21.696Z,84.19
2022-09-07T03:32:23.181Z,85.23
2022-09-07T03:37:25.253Z,85.99
2022-09-07T03:42:26.757Z,86.96
2022-09-07T03:47:28.397Z,86.76
2022-09-07T03:52:30.115Z,87.06
2022-09-07T03:57:31.755Z,86.56
2022-09-07T04:02:33.329Z,86.94
2022-09-07T04:07:35.070Z,86.90
2022-09-07T04:12:36.552Z,87.31
2022-09-07T04:17:38.188Z,87.89
2022-09-07T04:22:39.737Z,87.74
2022-09-07T04:27:41.238Z,87.55
2022-09-07T04:32:42.763Z,87.33
2022-09-07T04:37:44.684Z,87.83
2022-09-07T04:42:46.190Z,86.99
2022-09-07T04:47:50.749Z,86.24
2022-09-07T04:52:52.265Z,86.45
2022-09-07T04:57:56.917Z,86.92
2022-09-07T05:02:58.400Z,86.42
2022-09-07T05:07:59.904Z,86.28
2022-09-07T05:13:02.686Z,85.97
2022-09-07T05:18:04.757Z,84.62
2022-09-07T05:23:06.352Z,84.69
2022-09-07T05:28:08.184Z,84.44
2022-09-07T05:33:09.850Z,84.98
2022-09-07T05:38:11.369Z,84.90
2022-09-07T05:43:12.884Z,85.07
2022-09-07T05:48:14.451Z,84.96
2022-09-07T05:53:15.963Z,84.38
2022-09-07T05:58:18.612Z,84.69
2022-09-07T06:03:20.293Z,82.60
2022-09-07T06:08:21.942Z,82.80
2022-09-07T06:13:23.691Z,82.63
2022-09-07T06:18:29.559Z,81.09
2022-09-07T06:23:32.278Z,81.67
2022-09-07T06:28:36.723Z,80.50
2022-09-07T06:33:39.369Z,79.08
2022-09-07T06:38:42.012Z,78.56
2022-09-07T06:43:46.143Z,77.40
2022-09-07T06:48:47.683Z,77.46
2022-09-07T06:53:49.534Z,75.38
2022-09-07T06:58:55.129Z,74.99
2022-09-07T07:03:56.705Z,75.04
2022-09-07T07:08:58.266Z,73.28
2022-09-07T07:14:00.780Z,74.03
2022-09-07T07:19:02.338Z,72.67
2022-09-07T07:24:08.111Z,72.55
2022-09-07T07:29:10.148Z,72.08
2022-09-07T07:34:11.809Z,72.34
2022-09-07T07:44:34.921Z,72.62
2022-09-07T07:49:36.848Z,73.18
2022-09-07T07:54:38.570Z,72.19
2022-09-07T07:59:40.160Z,71.69
2022-09-07T08:04:41.735Z,71.01
2022-09-07T08:09:45.594Z,71.78
2022-09-07T08:14:48.178Z,72.34
2022-09-07T08:19:49.759Z,72.79
2022-09-07T08:24:51.338Z,71.63
2022-09-07T08:29:52.843Z,69.71
2022-09-07T08:34:54.260Z,70.38
2022-09-07T08:39:55.711Z,71.67
2022-09-07T08:45:06.166Z,71.39
2022-09-07T08:50:18.344Z,71.54
2022-09-07T08:55:38.948Z,70.27
2022-09-07T09:00:40.442Z,71.30
2022-09-07T09:05:57.500Z,70.72
2022-09-07T09:11:25.953Z,72.44
2022-09-07T09:16:47.831Z,75.73
2022-09-07T09:22:00.368Z,78.96
2022-09-07T09:27:01.954Z,80.72
2022-09-07T09:32:41.577Z,80.97
2022-09-07T09:37:43.967Z,84.80
2022-09-07T09:42:45.739Z,86.00
2022-09-07T09:47:50.743Z,85.48
2022-09-07T09:52:53.032Z,87.80
2022-09-07T10:09:01.824Z,88.13
2022-09-07T10:14:04.379Z,87.69
2022-09-07T10:19:06.289Z,87.33
2022-09-07T10:24:07.787Z,83.81
2022-09-07T10:29:29.648Z,83.18
2022-09-07T10:34:52.787Z,84.07
2022-09-07T10:40:20.855Z,84.42
2022-09-07T10:45:38.965Z,84.09
2022-09-07T10:51:12.515Z,86.40
2022-09-07T10:56:23.188Z,85.09
2022-09-07T11:01:36.388Z,83.24
2022-09-07T11:06:42.362Z,83.40
2022-09-07T11:12:09.792Z,81.00
2022-09-07T11:17:20.614Z,79.97
2022-09-07T11:22:35.022Z,78.66
2022-09-07T11:27:52.850Z,78.13
2022-09-07T11:33:12.710Z,77.51
2022-09-07T11:38:20.120Z,78.36
2022-09-07T11:43:27.305Z,78.81
2022-09-07T11:48:53.853Z,77.34
2022-09-07T11:54:00.469Z,75.13
2022-09-07T11:59:23.262Z,71.48
2022-09-07T12:04:56.609Z,61.38
2022-09-07T12:10:27.787Z,53.21
2022-09-07T12:15:57.057Z,51.30
2022-09-07T12:20:58.677Z,51.79
2022-09-07T12:26:34.449Z,53.25
2022-09-07T12:31:57.717Z,54.33
2022-09-07T12:37:39.358Z,51.97
2022-09-07T12:42:40.872Z,49.90
2022-09-07T12:47:42.336Z,51.98
2022-09-07T12:52:45.570Z,52.43
2022-09-07T12:58:36.709Z,52.72
2022-09-07T13:04:09.829Z,52.09
2022-09-07T13:09:32.697Z,50.88
2022-09-07T13:14:37.720Z,50.02
2022-09-07T13:19:51.334Z,49.26
2022-09-07T13:24:55.192Z,49.26
2022-09-07T13:30:29.172Z,50.94
2022-09-07T13:35:31.863Z,49.81
2022-09-07T13:40:38.291Z,48.67
2022-09-07T13:45:54.759Z,46.90
2022-09-07T13:51:04.149Z,47.61
2022-09-07T13:56:33.250Z,48.84
2022-09-07T14:01:35.183Z,48.94
2022-09-07T14:06:38.375Z,49.84
2022-09-07T14:11:47.841Z,50.40
2022-09-07T14:17:04.701Z,50.20
2022-09-07T14:22:14.509Z,49.97
2022-09-07T14:27:39.319Z,51.41
2022-09-07T14:32:41.489Z,51.50
2022-09-07T14:37:44.803Z,51.41
2022-09-07T14:42:49.884Z,50.46
2022-09-07T14:47:53.892Z,51.88
2022-09-07T14:58:23.814Z,52.13
2022-09-07T15:03:30.266Z,54.03
2022-09-07T15:08:43.229Z,54.43
2022-09-07T15:13:52.455Z,53.85
2022-09-07T15:19:03.551Z,53.69
2022-09-07T15:24:07.420Z,53.49
2022-09-07T15:29:18.196Z,53.55
2022-09-07T15:34:20.783Z,53.85
2022-09-07T15:39:25.606Z,53.45
2022-09-07T15:44:28.434Z,53.81
2022-09-07T15:49:30.120Z,54.99
2022-09-07T15:54:35.232Z,55.47
2022-09-07T15:59:38.468Z,56.07
2022-09-07T16:04:40.756Z,56.87
2022-09-07T16:09:42.376Z,57.25
2022-09-07T16:14:44.147Z,57.85
2022-09-07T16:19:45.741Z,58.69
2022-09-07T16:24:47.861Z,59.57
2022-09-07T16:29:49.288Z,59.71
2022-09-07T16:34:51.225Z,60.04
2022-09-07T16:39:53.195Z,60.82
2022-09-07T16:44:54.884Z,61.17
2022-09-07T16:49:56.868Z,62.06
2022-09-07T16:54:58.284Z,62.75
2022-09-07T16:59:59.831Z,63.14
2022-09-07T17:05:01.273Z,63.86
2022-09-07T17:10:04.030Z,64.57
2022-09-07T17:15:08.273Z,65.78
2022-09-07T17:20:10.055Z,66.50
2022-09-07T17:25:14.017Z,67.66
2022-09-07T17:30:15.695Z,68.34
2022-09-07T17:35:19.121Z,69.97
2022-09-07T17:40:20.574Z,70.96
2022-09-07T17:45:22.000Z,71.06
2022-09-07T17:50:23.496Z,72.70
2022-09-07T17:55:25.065Z,72.93
2022-09-07T18:00:26.505Z,74.36
2022-09-07T18:05:27.990Z,75.08
2022-09-07T18:11:44.920Z,74.36
2022-09-07T18:15:50.981Z,75.99
2022-09-07T18:20:52.397Z,77.95
2022-09-07T18:25:58.312Z,78.76
2022-09-07T18:31:08.846Z,80.19
2022-09-07T18:36:11.482Z,81.70
2022-09-07T18:41:14.704Z,82.79
2022-09-07T18:46:21.783Z,83.54
2022-09-07T18:51:23.432Z,84.08
2022-09-07T18:56:25.194Z,85.35
2022-09-07T19:01:27.009Z,85.87
2022-09-07T19:06:28.597Z,86.57
2022-09-07T19:11:30.562Z,87.49
2022-09-07T19:16:32.815Z,88.37
2022-09-07T19:21:37.265Z,88.71
2022-09-07T19:26:41.118Z,87.91
2022-09-07T19:32:07.452Z,89.65
2022-09-07T19:37:11.258Z,92.14
2022-09-07T19:42:13.205Z,90.90
2022-09-07T19:47:14.667Z,91.15
2022-09-07T19:52:16.518Z,92.09
2022-09-07T19:57:17.957Z,91.94
2022-09-07T20:02:19.448Z,92.45
2022-09-07T20:07:21.105Z,91.33
2022-09-07T20:12:22.506Z,92.63
2022-09-07T20:17:24.101Z,92.31
2022-09-07T20:22:25.637Z,92.37
2022-09-07T20:27:27.095Z,91.64
2022-09-07T20:32:28.522Z,91.49
2022-09-07T20:37:30.981Z,91.18
2022-09-07T20:42:32.429Z,92.45
2022-09-07T20:47:34.542Z,92.55
2022-09-07T20:52:35.968Z,92.67
2022-09-07T20:57:37.914Z,92.57
2022-09-07T21:02:39.464Z,93.17
2022-09-07T21:07:41.307Z,93.96
2022-09-07T21:12:42.780Z,94.37
2022-09-07T21:17:44.177Z,94.35
2022-09-07T21:22:45.892Z,94.04
2022-09-07T21:27:47.293Z,94.21
2022-09-07T21:32:52.233Z,94.96
2022-09-07T21:37:53.639Z,95.92
2022-09-07T21:42:55.095Z,96.26
2022-09-07T21:47:56.597Z,97.50
2022-09-07T21:52:58.092Z,98.47
2022-09-07T21:57:59.729Z,99.04
2022-09-07T22:03:01.151Z,99.81
2022-09-07T22:08:02.858Z,100.00
2022-09-07T22:13:04.311Z,100.00
2022-09-07T22:18:12.693Z,100.00
2022-09-07T22:23:14.107Z,100.00
2022-09-07T22:28:15.495Z,100.00
2022-09-07T22:33:16.961Z,100.00
2022-09-07T22:38:18.365Z,100.00
2022-09-07T22:43:19.796Z,100.00
2022-09-07T22:48:21.256Z,100.00
2022-09-07T22:53:22.864Z,100.00
2022-09-07T22:58:24.853Z,100.00
2022-09-07T23:03:28.781Z,100.00
2022-09-07T23:08:30.945Z,100.00
2022-09-07T23:13:33.505Z,100.00
2022-09-07T23:18:35.796Z,100.00
2022-09-07T23:23:38.076Z,100.00
2022-09-07T23:28:39.641Z,100.00
2022-09-07T23:33:41.081Z,100.00
2022-09-07T23:38:42.957Z,100.00
2022-09-07T23:43:45.244Z,100.00
2022-09-07T23:48:48.374Z,100.00
2022-09-07T23:53:51.029Z,100.00
2022-09-07T23:58:52.612Z,100.00
